createdAt,value
2019-03-04T00:01:25.861Z,22.75
2019-03-04T00:04:05.419Z,26.48
2019-03-04T00:06:45.414Z,29.80
2019-03-04T00:09:26.512Z,26.80
2019-03-04T00:12:05.232Z,26.97
2019-03-04T00:14:43.500Z,26.50
2019-03-04T00:17:21.177Z,31.00
2019-03-04T00:19:59.475Z,28.87
2019-03-04T00:22:38.795Z,27.48
2019-03-04T00:25:18.812Z,28.83
2019-03-04T00:27:58.379Z,31.75
2019-03-04T00:30:37.330Z,28.15
2019-03-04T00:33:19.601Z,32.85
2019-03-04T00:36:00.853Z,30.27
2019-03-04T00:38:38.631Z,26.25
2019-03-04T00:41:17.224Z,26.12
2019-03-04T00:43:59.908Z,26.00
2019-03-04T00:46:40.781Z,28.15
2019-03-04T00:49:18.400Z,26.23
2019-03-04T00:51:57.132Z,30.45
2019-03-04T00:54:35.547Z,24.47
2019-03-04T00:57:15.423Z,28.45
2019-03-04T00:59:56.082Z,27.22
2019-03-04T01:02:35.646Z,27.77
2019-03-04T01:05:14.549Z,26.80
2019-03-04T01:07:54.944Z,25.88
2019-03-04T01:10:33.136Z,27.95
2019-03-04T01:13:15.368Z,30.10
2019-03-04T01:15:53.178Z,28.67
2019-03-04T01:18:31.987Z,26.35
2019-03-04T01:21:13.827Z,29.70
2019-03-04T01:23:52.347Z,31.33
2019-03-04T01:26:30.082Z,29.18
2019-03-04T01:29:11.049Z,26.48
2019-03-04T01:31:48.800Z,28.70
2019-03-04T01:34:27.351Z,30.23
2019-03-04T01:37:06.459Z,27.58
2019-03-04T01:39:46.304Z,28.10
2019-03-04T01:42:24.305Z,31.00
2019-03-04T01:45:03.537Z,35.75
2019-03-04T01:47:44.034Z,28.83
2019-03-04T01:50:23.653Z,30.20
2019-03-04T01:53:02.694Z,41.42
2019-03-04T01:55:42.550Z,33.48
2019-03-04T01:58:21.263Z,30.65
2019-03-04T02:01:00.845Z,27.58
2019-03-04T02:03:38.813Z,27.67
2019-03-04T02:06:19.159Z,30.80
2019-03-04T02:08:58.547Z,32.17
2019-03-04T02:11:39.675Z,28.52
2019-03-04T02:14:18.004Z,27.42
2019-03-04T02:16:57.589Z,25.90
2019-03-04T02:19:39.428Z,31.20
2019-03-04T02:22:18.317Z,28.40
2019-03-04T02:25:01.317Z,30.57
2019-03-04T02:27:41.599Z,31.02
2019-03-04T02:30:25.451Z,33.15
2019-03-04T02:33:04.905Z,34.08
2019-03-04T02:35:43.117Z,28.42
2019-03-04T02:38:23.430Z,28.55
2019-03-04T02:41:02.130Z,24.95
2019-03-04T02:43:42.121Z,25.40
2019-03-04T02:46:21.698Z,23.07
2019-03-04T02:49:01.630Z,24.77
2019-03-04T02:51:40.672Z,28.20
2019-03-04T02:54:18.714Z,23.07
2019-03-04T02:56:57.738Z,26.07
2019-03-04T02:59:37.033Z,32.03
2019-03-04T03:02:16.168Z,24.18
2019-03-04T03:05:03.031Z,23.52
2019-03-04T03:07:41.777Z,29.15
2019-03-04T03:10:21.193Z,26.10
2019-03-04T03:13:01.599Z,23.87
2019-03-04T03:15:42.092Z,22.77
2019-03-04T03:18:20.444Z,22.70
2019-03-04T03:20:59.891Z,22.52
2019-03-04T03:23:43.090Z,23.77
2019-03-04T03:26:24.144Z,19.70
2019-03-04T03:29:05.453Z,26.55
2019-03-04T03:31:44.187Z,26.52
2019-03-04T03:34:21.729Z,28.17
2019-03-04T03:37:01.366Z,21.82
2019-03-04T03:39:40.339Z,24.47
2019-03-04T03:42:20.468Z,29.92
2019-03-04T03:45:01.104Z,25.37
2019-03-04T03:50:16.809Z,25.60
2019-03-04T03:52:57.764Z,19.92
2019-03-04T03:55:36.080Z,20.92
2019-03-04T03:58:14.552Z,19.60
2019-03-04T04:00:55.481Z,19.90
2019-03-04T04:03:36.411Z,30.97
2019-03-04T04:08:56.015Z,24.85
2019-03-04T04:11:34.350Z,24.63
2019-03-04T04:14:12.633Z,23.12
2019-03-04T04:16:50.056Z,24.00
2019-03-04T04:19:33.640Z,22.52
2019-03-04T04:22:11.936Z,25.08
2019-03-04T04:24:52.428Z,26.30
2019-03-04T04:27:30.765Z,23.38
2019-03-04T04:30:09.372Z,20.57
2019-03-04T04:32:48.152Z,24.05
2019-03-04T04:35:26.541Z,16.23
2019-03-04T04:38:04.941Z,26.75
2019-03-04T04:40:46.493Z,18.82
2019-03-04T04:43:24.747Z,24.95
2019-03-04T04:46:03.603Z,21.42
2019-03-04T04:48:41.118Z,20.05
2019-03-04T04:51:20.102Z,19.00
2019-03-04T04:53:58.080Z,19.15
2019-03-04T04:56:37.082Z,23.62
2019-03-04T04:59:15.346Z,20.12
2019-03-04T05:01:54.091Z,17.62
2019-03-04T05:04:33.368Z,20.27
2019-03-04T05:07:13.147Z,19.05
2019-03-04T05:09:51.502Z,21.97
2019-03-04T05:12:31.695Z,20.43
2019-03-04T05:15:11.858Z,22.85
2019-03-04T05:17:50.434Z,24.12
2019-03-04T05:20:28.882Z,21.10
2019-03-04T05:23:08.399Z,17.80
2019-03-04T05:25:47.073Z,15.50
2019-03-04T05:28:26.950Z,15.28
2019-03-04T05:31:04.988Z,19.00
2019-03-04T05:33:43.540Z,13.78
2019-03-04T05:36:21.794Z,16.55
2019-03-04T05:39:00.199Z,26.05
2019-03-04T05:41:40.228Z,18.48
2019-03-04T05:44:20.648Z,18.95
2019-03-04T05:46:58.139Z,18.87
2019-03-04T05:49:37.457Z,18.80
2019-03-04T05:52:16.204Z,14.18
2019-03-04T05:54:55.629Z,23.92
2019-03-04T05:57:33.788Z,17.45
2019-03-04T06:00:19.065Z,14.40
2019-03-04T06:02:56.860Z,21.52
2019-03-04T06:05:35.599Z,23.18
2019-03-04T06:08:14.407Z,18.12
2019-03-04T06:10:54.425Z,18.20
2019-03-04T06:13:32.906Z,22.67
2019-03-04T06:16:12.925Z,18.50
2019-03-04T06:18:51.101Z,22.37
2019-03-04T06:21:29.879Z,19.52
2019-03-04T06:24:10.010Z,15.45
2019-03-04T06:26:53.611Z,23.60
2019-03-04T06:29:31.476Z,18.60
2019-03-04T06:32:11.345Z,20.10
2019-03-04T06:34:51.315Z,19.85
2019-03-04T06:37:33.460Z,19.92
2019-03-04T06:40:12.964Z,21.42
2019-03-04T06:43:10.854Z,18.23
2019-03-04T06:45:49.263Z,18.90
2019-03-04T06:48:30.877Z,12.82
2019-03-04T06:51:13.934Z,24.07
2019-03-04T06:54:08.125Z,19.00
2019-03-04T06:57:05.398Z,16.27
2019-03-04T07:00:14.547Z,22.42
2019-03-04T07:02:53.738Z,23.02
2019-03-04T07:06:09.654Z,18.00
2019-03-04T07:09:16.595Z,22.13
2019-03-04T07:11:56.782Z,19.73
2019-03-04T07:14:35.569Z,20.48
2019-03-04T07:17:13.375Z,26.87
2019-03-04T07:20:06.019Z,22.25
2019-03-04T07:22:45.503Z,15.85
2019-03-04T07:25:25.374Z,18.30
2019-03-04T07:28:03.323Z,21.68
2019-03-04T07:30:41.625Z,21.52
2019-03-04T07:33:20.153Z,17.90
2019-03-04T07:35:58.129Z,20.08
2019-03-04T07:39:08.051Z,16.17
2019-03-04T07:41:58.034Z,18.00
2019-03-04T07:44:37.421Z,22.00
2019-03-04T07:47:17.385Z,25.75
2019-03-04T07:49:57.336Z,17.62
2019-03-04T07:52:35.240Z,17.37
2019-03-04T07:55:14.540Z,20.88
2019-03-04T07:57:53.214Z,19.62
2019-03-04T08:00:31.429Z,17.20
2019-03-04T08:03:12.249Z,19.62
2019-03-04T08:05:51.823Z,21.65
2019-03-04T08:08:29.853Z,18.73
2019-03-04T08:11:39.607Z,16.32
2019-03-04T08:14:17.449Z,21.87
2019-03-04T08:16:56.955Z,22.70
2019-03-04T08:19:35.116Z,16.62
2019-03-04T08:22:15.015Z,25.02
2019-03-04T08:24:55.370Z,18.73
2019-03-04T08:27:33.988Z,16.50
2019-03-04T08:30:20.104Z,21.30
2019-03-04T08:32:58.690Z,21.20
2019-03-04T08:35:37.072Z,20.05
2019-03-04T08:38:16.875Z,19.57
2019-03-04T08:40:54.931Z,18.57
2019-03-04T08:43:33.303Z,18.77
2019-03-04T08:46:11.696Z,17.42
2019-03-04T08:48:51.322Z,24.90
2019-03-04T08:51:30.317Z,23.83
2019-03-04T08:54:10.972Z,19.73
2019-03-04T08:56:50.349Z,16.05
2019-03-04T08:59:30.915Z,15.83
2019-03-04T09:02:09.259Z,16.75
2019-03-04T09:04:50.136Z,21.10
2019-03-04T09:07:29.362Z,24.45
2019-03-04T09:10:17.309Z,17.10
2019-03-04T09:12:56.132Z,17.35
2019-03-04T09:15:34.355Z,19.30
2019-03-04T09:18:13.801Z,15.58
2019-03-04T09:20:53.239Z,16.42
2019-03-04T09:23:31.764Z,24.30
2019-03-04T09:26:13.535Z,19.00
2019-03-04T09:28:54.248Z,15.55
2019-03-04T09:31:39.473Z,18.50
2019-03-04T09:34:18.914Z,19.20
2019-03-04T09:37:05.775Z,16.82
2019-03-04T09:39:50.496Z,18.07
2019-03-04T09:42:32.986Z,17.40
2019-03-04T09:45:13.224Z,18.75
2019-03-04T09:47:53.947Z,23.00
2019-03-04T09:50:32.327Z,24.95
2019-03-04T09:53:11.818Z,21.27
2019-03-04T09:55:49.796Z,20.17
2019-03-04T09:58:30.043Z,21.90
2019-03-04T10:01:33.085Z,24.25
2019-03-04T10:04:48.051Z,20.05
2019-03-04T10:07:51.464Z,19.90
2019-03-04T10:10:59.669Z,18.73
2019-03-04T10:14:07.698Z,17.12
2019-03-04T10:17:20.677Z,18.80
2019-03-04T10:20:44.277Z,17.05
2019-03-04T10:24:17.458Z,23.80
2019-03-04T10:27:42.903Z,18.45
2019-03-04T10:31:02.948Z,16.20
2019-03-04T10:34:12.437Z,26.60
2019-03-04T10:37:21.799Z,22.65
2019-03-04T10:40:30.601Z,20.52
2019-03-04T10:43:57.731Z,21.65
2019-03-04T10:46:59.904Z,21.93
2019-03-04T10:49:39.356Z,20.77
2019-03-04T10:52:18.115Z,21.75
2019-03-04T10:54:57.879Z,21.27
2019-03-04T10:57:35.981Z,21.75
2019-03-04T11:00:20.144Z,25.02
2019-03-04T11:03:00.499Z,20.55
2019-03-04T11:05:39.182Z,21.07
2019-03-04T11:08:17.381Z,22.80
2019-03-04T11:10:55.018Z,21.65
2019-03-04T11:13:33.243Z,25.65
2019-03-04T11:16:11.166Z,21.27
2019-03-04T11:18:48.414Z,23.15
2019-03-04T11:21:26.315Z,24.67
2019-03-04T11:24:06.009Z,19.70
2019-03-04T11:26:44.462Z,25.95
2019-03-04T11:29:22.401Z,27.15
2019-03-04T11:32:00.152Z,26.95
2019-03-04T11:34:38.671Z,28.47
2019-03-04T11:37:17.273Z,25.65
2019-03-04T11:40:17.495Z,28.32
2019-03-04T11:42:55.138Z,20.77
2019-03-04T11:45:33.839Z,27.90
2019-03-04T11:48:13.043Z,25.60
2019-03-04T11:50:50.991Z,30.35
2019-03-04T11:53:28.882Z,24.45
2019-03-04T11:56:07.803Z,24.07
2019-03-04T11:58:46.801Z,24.77
2019-03-04T12:01:31.035Z,28.62
2019-03-04T12:04:09.564Z,27.77
2019-03-04T12:06:50.710Z,30.82
2019-03-04T12:09:30.055Z,29.02
2019-03-04T12:12:08.418Z,26.05
2019-03-04T12:14:46.721Z,27.75
2019-03-04T12:17:24.851Z,26.42
2019-03-04T12:20:04.162Z,25.25
2019-03-04T12:22:44.183Z,26.35
2019-03-04T12:25:22.571Z,25.85
2019-03-04T12:28:01.814Z,26.82
2019-03-04T12:30:41.946Z,28.35
2019-03-04T12:33:20.033Z,27.30
2019-03-04T12:35:58.341Z,29.12
2019-03-04T12:38:38.701Z,32.45
2019-03-04T12:41:19.025Z,27.75
2019-03-04T12:43:57.454Z,24.40
2019-03-04T12:46:35.833Z,25.12
2019-03-04T12:49:14.406Z,28.80
2019-03-04T12:51:53.997Z,26.17
2019-03-04T12:54:32.381Z,22.65
2019-03-04T12:57:13.358Z,25.37
2019-03-04T12:59:51.397Z,29.07
2019-03-04T13:02:30.144Z,24.10
2019-03-04T13:05:08.205Z,22.67
2019-03-04T13:07:49.058Z,30.00
2019-03-04T13:10:31.434Z,24.95
2019-03-04T13:13:11.757Z,25.80
2019-03-04T13:15:51.662Z,24.27
2019-03-04T13:18:31.070Z,25.77
2019-03-04T13:21:10.583Z,24.72
2019-03-04T13:23:50.407Z,22.25
2019-03-04T13:26:32.876Z,24.02
2019-03-04T13:29:17.559Z,30.52
2019-03-04T13:31:57.007Z,23.92
2019-03-04T13:34:36.704Z,30.85
2019-03-04T13:37:15.365Z,31.25
2019-03-04T13:39:57.098Z,28.45
2019-03-04T13:42:38.893Z,24.55
2019-03-04T13:45:17.748Z,26.20
2019-03-04T13:47:56.550Z,26.80
2019-03-04T13:50:39.256Z,23.27
2019-03-04T13:53:21.593Z,24.05
2019-03-04T13:56:06.539Z,23.40
2019-03-04T13:58:47.559Z,21.95
2019-03-04T14:01:28.050Z,24.72
2019-03-04T14:04:14.928Z,25.20
2019-03-04T14:06:55.227Z,24.05
2019-03-04T14:09:36.532Z,23.25
2019-03-04T14:12:20.701Z,24.02
2019-03-04T14:15:03.752Z,23.57
2019-03-04T14:17:46.830Z,24.32
2019-03-04T14:20:25.660Z,20.35
2019-03-04T14:23:17.461Z,25.92
2019-03-04T14:26:02.680Z,27.40
2019-03-04T14:28:42.105Z,22.87
2019-03-04T14:31:24.290Z,28.80
2019-03-04T14:34:02.623Z,21.87
2019-03-04T14:36:42.420Z,22.75
2019-03-04T14:39:29.412Z,23.12
2019-03-04T14:42:12.425Z,26.85
2019-03-04T14:44:52.195Z,25.52
2019-03-04T14:47:34.652Z,25.40
2019-03-04T14:50:15.726Z,29.25
2019-03-04T14:52:58.420Z,20.25
2019-03-04T14:55:36.860Z,23.15
2019-03-04T14:58:20.025Z,23.67
2019-03-04T15:00:59.179Z,24.23
2019-03-04T15:03:40.123Z,19.95
2019-03-04T15:06:17.836Z,23.70
2019-03-04T15:08:56.449Z,27.87
2019-03-04T15:11:35.641Z,24.43
2019-03-04T15:14:13.754Z,25.32
2019-03-04T15:17:02.741Z,25.25
2019-03-04T15:19:34.392Z,27.98
2019-03-04T15:22:12.946Z,30.85
2019-03-04T15:24:54.536Z,23.75
2019-03-04T15:27:34.633Z,23.98
2019-03-04T15:30:15.657Z,25.23
2019-03-04T15:32:54.302Z,24.45
2019-03-04T15:35:32.281Z,27.62
2019-03-04T15:38:12.705Z,27.58
2019-03-04T15:40:54.013Z,29.20
2019-03-04T15:43:33.999Z,27.35
2019-03-04T15:46:16.745Z,27.35
2019-03-04T15:48:59.311Z,25.27
2019-03-04T15:51:40.773Z,29.32
2019-03-04T15:54:20.858Z,27.50
2019-03-04T15:57:02.873Z,25.43
2019-03-04T15:59:45.944Z,23.40
2019-03-04T16:02:26.932Z,22.27
2019-03-04T16:05:06.623Z,23.38
2019-03-04T16:07:48.584Z,25.02
2019-03-04T16:10:30.898Z,19.62
2019-03-04T16:13:14.839Z,25.45
2019-03-04T16:15:53.392Z,25.62
2019-03-04T16:18:34.961Z,28.10
2019-03-04T16:21:13.495Z,22.33
2019-03-04T16:23:54.963Z,26.07
2019-03-04T16:26:36.811Z,23.02
2019-03-04T16:29:16.071Z,25.55
2019-03-04T16:32:13.651Z,22.95
2019-03-04T16:34:57.251Z,30.62
2019-03-04T16:37:39.704Z,27.37
2019-03-04T16:40:22.201Z,20.00
2019-03-04T16:43:05.759Z,23.47
2019-03-04T16:46:00.423Z,26.10
2019-03-04T16:48:40.628Z,24.95
2019-03-04T16:51:19.040Z,24.50
2019-03-04T16:53:58.709Z,28.98
2019-03-04T16:56:38.662Z,23.38
2019-03-04T16:59:17.840Z,23.00
2019-03-04T17:01:56.159Z,22.90
2019-03-04T17:04:35.575Z,24.72
2019-03-04T17:07:14.600Z,22.67
2019-03-04T17:09:57.071Z,26.05
2019-03-04T17:12:39.441Z,20.57
2019-03-04T17:15:20.901Z,25.72
2019-03-04T17:17:59.737Z,23.70
2019-03-04T17:20:39.688Z,22.05
2019-03-04T17:23:17.273Z,20.55
2019-03-04T17:25:56.456Z,25.45
2019-03-04T17:28:36.055Z,22.62
2019-03-04T17:31:17.642Z,25.12
2019-03-04T17:33:56.325Z,30.70
2019-03-04T17:36:35.990Z,26.30
2019-03-04T17:39:16.342Z,29.77
2019-03-04T17:41:58.400Z,25.05
2019-03-04T17:44:36.619Z,27.25
2019-03-04T17:47:14.351Z,26.17
2019-03-04T17:49:54.005Z,25.48
2019-03-04T17:52:32.429Z,28.25
2019-03-04T17:55:27.737Z,25.17
2019-03-04T17:58:08.778Z,31.50
2019-03-04T18:00:54.044Z,35.60
2019-03-04T18:03:32.378Z,29.95
2019-03-04T18:06:10.743Z,25.27
2019-03-04T18:08:49.908Z,25.50
2019-03-04T18:11:28.849Z,27.32
2019-03-04T18:14:09.119Z,27.85
2019-03-04T18:16:53.208Z,28.45
2019-03-04T18:19:31.386Z,24.10
2019-03-04T18:22:09.611Z,32.78
2019-03-04T18:24:50.516Z,31.82
2019-03-04T18:27:47.448Z,33.53
2019-03-04T18:30:42.649Z,29.63
2019-03-04T18:34:06.581Z,30.25
2019-03-04T18:37:07.346Z,31.12
2019-03-04T18:40:00.029Z,27.27
2019-03-04T18:43:04.051Z,32.20
2019-03-04T18:46:18.457Z,32.28
2019-03-04T18:48:58.617Z,31.07
2019-03-04T18:51:37.636Z,31.20
2019-03-04T18:54:21.517Z,29.18
2019-03-04T18:57:00.244Z,33.90
2019-03-04T18:59:38.635Z,32.63
2019-03-04T19:02:20.212Z,27.15
2019-03-04T19:05:02.335Z,32.90
2019-03-04T19:07:43.526Z,35.10
2019-03-04T19:10:24.041Z,36.88
2019-03-04T19:13:02.499Z,33.33
2019-03-04T19:15:43.331Z,34.25
2019-03-04T19:18:25.117Z,35.43
2019-03-04T19:21:03.167Z,33.78
2019-03-04T19:23:42.302Z,35.00
2019-03-04T19:26:20.471Z,34.92
2019-03-04T19:29:00.287Z,33.53
2019-03-04T19:31:39.788Z,32.38
2019-03-04T19:34:20.273Z,33.83
2019-03-04T19:36:59.198Z,35.43
2019-03-04T19:39:38.781Z,30.70
2019-03-04T19:42:17.655Z,30.85
2019-03-04T19:44:56.355Z,34.48
2019-03-04T19:47:34.872Z,32.40
2019-03-04T19:50:15.275Z,31.15
2019-03-04T19:52:54.144Z,30.57
2019-03-04T19:55:32.615Z,31.45
2019-03-04T19:58:11.343Z,33.58
2019-03-04T20:00:50.173Z,30.68
2019-03-04T20:03:29.895Z,35.95
2019-03-04T20:06:10.638Z,28.65
2019-03-04T20:08:50.121Z,33.63
2019-03-04T20:11:28.605Z,31.12
2019-03-04T20:14:06.800Z,34.05
2019-03-04T20:16:44.814Z,34.73
2019-03-04T20:19:22.813Z,30.80
2019-03-04T20:22:01.761Z,31.45
2019-03-04T20:24:43.614Z,29.52
2019-03-04T20:27:23.059Z,33.20
2019-03-04T20:30:02.326Z,33.92
2019-03-04T20:32:43.451Z,33.45
2019-03-04T20:35:25.037Z,33.58
2019-03-04T20:38:05.818Z,37.50
2019-03-04T20:40:45.011Z,31.45
2019-03-04T20:43:24.650Z,31.33
2019-03-04T20:46:02.898Z,28.75
2019-03-04T20:48:43.547Z,34.83
2019-03-04T20:51:21.700Z,27.82
2019-03-04T20:54:00.108Z,33.10
2019-03-04T20:56:40.630Z,30.17
2019-03-04T20:59:18.683Z,31.62
2019-03-04T21:01:57.003Z,32.00
2019-03-04T21:04:42.130Z,31.30
2019-03-04T21:07:20.360Z,30.97
2019-03-04T21:10:00.692Z,28.85
2019-03-04T21:12:40.985Z,30.05
2019-03-04T21:15:19.958Z,31.48
2019-03-04T21:17:59.308Z,30.40
2019-03-04T21:20:39.761Z,33.85
2019-03-04T21:23:20.250Z,32.23
2019-03-04T21:26:23.523Z,30.37
2019-03-04T21:29:53.234Z,30.43
2019-03-04T21:32:59.047Z,28.38
2019-03-04T21:36:31.498Z,27.52
2019-03-04T21:39:11.232Z,28.80
2019-03-04T21:42:20.263Z,27.77
2019-03-04T21:45:42.808Z,29.32
2019-03-04T21:48:38.062Z,29.87
2019-03-04T21:51:49.599Z,31.48
2019-03-04T21:54:28.233Z,35.17
2019-03-04T21:57:52.785Z,30.72
2019-03-04T22:00:39.226Z,28.83
2019-03-04T22:03:34.981Z,34.20
2019-03-04T22:06:15.171Z,33.95
2019-03-04T22:08:54.290Z,28.38
2019-03-04T22:11:35.466Z,32.25
2019-03-04T22:14:16.879Z,44.03
2019-03-04T22:16:56.654Z,29.35
2019-03-04T22:19:35.048Z,32.38
2019-03-04T22:22:15.571Z,26.60
2019-03-04T22:24:53.230Z,29.15
2019-03-04T22:27:32.444Z,32.53
2019-03-04T22:30:13.322Z,31.02
2019-03-04T22:32:54.646Z,27.52
2019-03-04T22:35:33.627Z,33.85
2019-03-04T22:38:16.997Z,30.75
2019-03-04T22:40:54.584Z,30.23
2019-03-04T22:43:35.693Z,28.98
2019-03-04T22:46:15.210Z,31.70
2019-03-04T22:48:56.505Z,32.05
2019-03-04T22:51:35.080Z,33.85
2019-03-04T22:54:14.351Z,31.80
2019-03-04T22:56:52.710Z,30.77
2019-03-04T22:59:31.973Z,37.95
2019-03-04T23:02:10.976Z,40.60
2019-03-04T23:04:57.138Z,36.33
2019-03-04T23:07:41.186Z,36.63
2019-03-04T23:10:45.303Z,37.65
2019-03-04T23:14:04.283Z,38.48
2019-03-04T23:16:45.693Z,36.10
2019-03-04T23:19:24.437Z,37.55
2019-03-04T23:22:02.902Z,36.33
2019-03-04T23:24:41.389Z,36.68
2019-03-04T23:27:21.203Z,41.48
2019-03-04T23:29:59.938Z,40.17
2019-03-04T23:32:39.369Z,36.68
2019-03-04T23:35:17.897Z,35.83
2019-03-04T23:37:59.682Z,44.05
2019-03-04T23:40:40.664Z,37.90
2019-03-04T23:43:19.616Z,36.35
2019-03-04T23:45:58.533Z,35.48
2019-03-04T23:48:39.274Z,45.92
2019-03-04T23:51:17.940Z,64.77
2019-03-04T23:53:56.537Z,51.28
2019-03-04T23:56:36.406Z,33.83
2019-03-04T23:59:15.969Z,45.10
